Miami Gardens, Florida
Current Conditions -  °F | °C
As of 5:40 PM on Sunday 23 Nov 2014 (Local Time) from KOPF Reporting Station
Broken Clouds Broken Clouds  
Wind Chill: 79°   Ceiling: 5500
Heat Index: 82°   Visibility: 10mi
Dew Point: 73°   Wind: 14mph
Humidity: 82%   Direction: 140°SE
Pressure: 29.93"   Gusts: NA
Location:  25.9357°N, 80.3817°W
Report Text: KOPF 232240Z 14012KT 10SM SCT020 SCT027 BKN055 26/23 A2993 RMK AO2 RAB15E28 P0000 T02610228
Loading
Personal Weather Stations






























Interactive Weather Map New forecast layout! Learn more

10-Day Weather Forecast

Advertisements
Track Severe Weather on mobile